Time;durP1;ratioP1;P1;durP2;ratioP2;P2;SDS_P1;SDS_P2;PMS_P1;PMS_P2;Temp;Humidity;BMP_temperature;BMP_pressure;BME280_temperature;BME280_humidity;BME280_pressure;Samples;Min_cycle;Max_cycle;Signal;HPM_P1;HPM_P2
2023/04/30 00:02:18;;;;;;;6.43;2.83;;;;;;;;;;4960916;28;20183;-70
2023/04/30 00:04:44;;;;;;;8.77;3.72;;;;;;;;;;4960700;28;20081;-69
2023/04/30 00:07:10;;;;;;;10.20;3.47;;;;;;;;;;4962491;28;20919;-69
2023/04/30 00:09:36;;;;;;;8.48;3.53;;;;;;;;;;4976434;28;20051;-69
2023/04/30 00:12:02;;;;;;;6.80;3.78;;;7.80;99.90;;;;;;4956770;28;20599;-69
2023/04/30 00:14:28;;;;;;;7.25;3.08;;;;;;;;;;4963117;28;20050;-69
2023/04/30 00:16:54;;;;;;;5.93;2.90;;;;;;;;;;4957482;28;20050;-70
2023/04/30 00:19:20;;;;;;;7.70;2.78;;;7.80;99.90;;;;;;4968187;28;20043;-69
2023/04/30 00:21:46;;;;;;;6.07;3.58;;;;;;;;;;4978349;28;20550;-70
2023/04/30 00:24:12;;;;;;;7.80;3.72;;;;;;;;;;4958260;28;20050;-70
2023/04/30 00:26:38;;;;;;;7.80;3.47;;;;;;;;;;4982470;28;20042;-70
2023/04/30 00:29:03;;;;;;;5.35;3.78;;;7.70;99.90;;;;;;4979146;28;20539;-69
2023/04/30 00:31:29;;;;;;;5.72;2.67;;;;;;;;;;4967096;28;20073;-69
2023/04/30 00:33:56;;;;;;;7.72;2.78;;;;;;;;;;4985073;28;20057;-69
2023/04/30 00:36:22;;;;;;;8.55;3.13;;;;;;;;;;4977546;28;20050;-69
2023/04/30 00:38:48;;;;;;;8.15;4.63;;;;;;;;;;4983633;28;20035;-70
2023/04/30 00:41:14;;;;;;;10.18;3.28;;;;;;;;;;4960479;28;20062;-70
2023/04/30 00:43:40;;;;;;;9.48;4.18;;;;;;;;;;4967017;28;20133;-69
2023/04/30 00:46:06;;;;;;;7.90;3.38;;;;;;;;;;4961513;28;21071;-69
2023/04/30 00:48:32;;;;;;;4.60;3.25;;;;;;;;;;4974238;28;20394;-69
2023/04/30 00:50:57;;;;;;;6.32;3.13;;;7.20;99.90;;;;;;4967704;28;20057;-69
2023/04/30 00:53:23;;;;;;;5.53;3.85;;;;;;;;;;4968964;28;20057;-69
2023/04/30 00:55:49;;;;;;;9.55;3.75;;;;;;;;;;4963399;28;20065;-69
2023/04/30 00:58:15;;;;;;;6.70;3.13;;;7.20;99.90;;;;;;4982035;28;20047;-69
2023/04/30 01:00:45;;;;;;;7.55;3.63;;;;;;;;;;4958129;28;20052;-69
2023/04/30 01:03:12;;;;;;;3.42;2.17;;;;;;;;;;4966986;28;20038;-69
2023/04/30 01:05:38;;;;;;;3.92;2.00;;;;;;;;;;4973449;28;20105;-70
2023/04/30 01:08:04;;;;;;;3.97;1.88;;;;;;;;;;4975678;28;20065;-69
2023/04/30 01:10:35;;;;;;;8.10;2.55;;;;;;;;;;4971444;28;20081;-70
2023/04/30 01:13:22;;;;;;;6.88;2.55;;;;;;;;;;4974403;28;20043;-69
2023/04/30 01:15:51;;;;;;;8.27;3.22;;;;;;;;;;4971826;28;20047;-70
2023/04/30 01:18:35;;;;;;;8.75;2.92;;;;;;;;;;4968158;28;20061;-69
2023/04/30 01:21:03;;;;;;;4.20;3.10;;;;;;;;;;4962348;28;20129;-70
2023/04/30 01:23:29;;;;;;;8.80;4.25;;;;;;;;;;4966006;28;20518;-70
2023/04/30 01:26:04;;;;;;;6.22;2.38;;;;;;;;;;4961761;28;20078;-70
2023/04/30 01:28:31;;;;;;;2.80;1.63;;;6.60;99.90;;;;;;4949446;28;20092;-69
2023/04/30 01:30:57;;;;;;;5.45;2.40;;;6.60;99.90;;;;;;4983509;28;20070;-70
2023/04/30 01:33:23;;;;;;;7.35;3.03;;;;;;;;;;4977694;28;20081;-70
2023/04/30 01:35:52;;;;;;;8.27;3.35;;;;;;;;;;4962508;28;20046;-70
2023/04/30 01:38:33;;;;;;;6.15;2.67;;;;;;;;;;4974058;28;20050;-70
2023/04/30 01:40:59;;;;;;;2.95;2.50;;;;;;;;;;4953533;28;20509;-70
2023/04/30 01:43:31;;;;;;;3.55;2.00;;;;;;;;;;4959319;28;20137;-70
2023/04/30 01:46:22;;;;;;;3.97;2.33;;;6.10;99.90;;;;;;4960773;28;20050;-70
2023/04/30 01:48:55;;;;;;;8.95;3.13;;;6.30;99.90;;;;;;4970192;28;20042;-70
2023/04/30 01:51:41;;;;;;;7.60;2.90;;;6.30;99.90;;;;;;4970659;28;20125;-70
2023/04/30 01:54:26;;;;;;;7.70;2.35;;;;;;;;;;4962511;28;20057;-69
2023/04/30 01:57:02;;;;;;;5.13;2.28;;;;;;;;;;4958396;28;20078;-69
2023/04/30 01:59:29;;;;;;;4.05;2.00;;;;;;;;;;4961434;28;20058;-70
2023/04/30 02:01:55;;;;;;;5.68;2.90;;;;;;;;;;4962452;28;20038;-69
2023/04/30 02:04:21;;;;;;;4.00;2.50;;;;;;;;;;4981423;28;20039;-70
2023/04/30 02:06:47;;;;;;;8.10;2.97;;;;;;;;;;4957892;28;20370;-70
2023/04/30 02:09:13;;;;;;;9.02;3.22;;;;;;;;;;4956130;28;20099;-70
2023/04/30 02:11:39;;;;;;;4.57;2.20;;;;;;;;;;4962535;28;20053;-70
2023/04/30 02:14:05;;;;;;;5.07;2.15;;;;;;;;;;4967873;28;20045;-70
2023/04/30 02:16:32;;;;;;;5.32;2.13;;;;;;;;;;4965028;28;20053;-70
2023/04/30 02:18:57;;;;;;;2.83;1.88;;;;;;;;;;4986305;28;20078;-69
2023/04/30 02:21:23;;;;;;;6.40;2.30;;;;;;;;;;4958567;28;20078;-70
2023/04/30 02:23:49;;;;;;;8.00;2.72;;;;;;;;;;4987771;28;20038;-70
2023/04/30 02:26:15;;;;;;;6.85;2.88;;;;;;;;;;4981755;28;20499;-69
2023/04/30 02:28:41;;;;;;;4.07;2.50;;;;;;;;;;4961594;28;20062;-69
2023/04/30 02:31:07;;;;;;;8.48;2.75;;;6.00;99.90;;;;;;4969337;28;20121;-70
2023/04/30 02:33:33;;;;;;;8.18;2.72;;;;;;;;;;4953016;28;20505;-70
2023/04/30 02:35:59;;;;;;;5.25;2.45;;;;;;;;;;4961828;28;20890;-70
2023/04/30 02:38:25;;;;;;;2.92;2.38;;;;;;;;;;4964276;28;20053;-69
2023/04/30 02:40:51;;;;;;;8.32;2.65;;;;;;;;;;4959763;28;20047;-70
2023/04/30 02:43:17;;;;;;;10.75;2.80;;;;;;;;;;4963747;28;20133;-70
2023/04/30 02:45:43;;;;;;;8.40;3.13;;;;;;;;;;4959722;28;20129;-70
2023/04/30 02:48:09;;;;;;;8.70;3.03;;;;;;;;;;4959513;28;20053;-69
2023/04/30 02:50:35;;;;;;;5.30;3.13;;;;;;;;;;4966944;28;20054;-69
2023/04/30 02:53:03;;;;;;;5.10;2.83;;;;;;;;;;4967053;28;20049;-69
2023/04/30 02:55:29;;;;;;;4.80;2.72;;;;;;;;;;4970132;28;20118;-70
2023/04/30 02:57:55;;;;;;;11.50;2.97;;;;;;;;;;4957055;28;20061;-69
2023/04/30 03:00:22;;;;;;;5.65;2.83;;;;;;;;;;4971810;28;20046;-69
2023/04/30 03:02:47;;;;;;;5.82;2.75;;;;;;;;;;4943938;28;20046;-69
2023/04/30 03:05:14;;;;;;;5.80;2.78;;;;;;;;;;4960052;28;20045;-69
2023/04/30 03:07:40;;;;;;;5.50;2.45;;;;;;;;;;4968621;28;20053;-69
2023/04/30 03:10:07;;;;;;;4.25;2.33;;;;;;;;;;4951106;28;20042;-70
2023/04/30 03:12:33;;;;;;;4.07;2.72;;;;;;;;;;4976204;28;20053;-70
2023/04/30 03:14:58;;;;;;;5.53;2.60;;;5.80;99.90;;;;;;4965466;28;20046;-70
2023/04/30 03:17:24;;;;;;;7.32;2.90;;;;;;;;;;4963460;28;20042;-70
2023/04/30 03:19:50;;;;;;;6.03;2.00;;;;;;;;;;4979672;28;20086;-69
2023/04/30 03:22:22;;;;;;;2.42;1.80;;;;;;;;;;4958938;28;20495;-69
2023/04/30 03:24:48;;;;;;;6.68;2.00;;;;;;;;;;4974287;28;20117;-70
2023/04/30 03:27:15;;;;;;;7.53;2.97;;;;;;;;;;4980282;28;20047;-70
2023/04/30 03:29:41;;;;;;;5.70;2.35;;;;;;;;;;4961566;28;20054;-69
2023/04/30 03:32:08;;;;;;;4.47;2.30;;;;;;;;;;4965637;28;20146;-70
2023/04/30 03:34:33;;;;;;;3.83;2.10;;;;;;;;;;4967651;28;20073;-70
2023/04/30 03:37:00;;;;;;;4.05;2.30;;;5.60;99.90;;;;;;4962102;28;20055;-70
2023/04/30 03:39:26;;;;;;;4.20;2.42;;;;;;;;;;4960819;28;20059;-69
2023/04/30 03:41:52;;;;;;;6.03;2.65;;;;;;;;;;4962164;28;20050;-70
2023/04/30 03:44:18;;;;;;;4.28;2.22;;;;;;;;;;4957851;28;20757;-70
2023/04/30 03:46:44;;;;;;;2.83;2.47;;;;;;;;;;4974951;28;20042;-70
2023/04/30 03:49:10;;;;;;;6.40;2.28;;;;;;;;;;4954047;28;20081;-70
2023/04/30 03:51:40;;;;;;;5.20;2.47;;;;;;;;;;4961170;28;20496;-70
2023/04/30 03:54:06;;;;;;;7.47;2.72;;;;;;;;;;4988313;28;20136;-69
2023/04/30 03:56:33;;;;;;;6.60;2.70;;;;;;;;;;4964966;28;20865;-70
2023/04/30 03:58:59;;;;;;;5.93;2.72;;;;;;;;;;4989169;28;20070;-70
2023/04/30 04:01:25;;;;;;;4.18;2.33;;;;;;;;;;4982231;28;20070;-70
2023/04/30 04:03:51;;;;;;;7.05;2.05;;;;;;;;;;4965386;28;20069;-69
2023/04/30 04:06:17;;;;;;;4.85;2.60;;;;;;;;;;4966789;28;20085;-70
2023/04/30 04:08:43;;;;;;;7.07;3.00;;;;;;;;;;4966223;28;20050;-70
2023/04/30 04:11:12;;;;;;;7.85;2.97;;;;;;;;;;4963468;28;20110;-70
2023/04/30 04:13:38;;;;;;;4.05;2.50;;;;;;;;;;4957402;28;20046;-70
2023/04/30 04:16:04;;;;;;;2.70;2.40;;;;;;;;;;4956085;28;20050;-70
2023/04/30 04:18:30;;;;;;;3.10;2.53;;;;;;;;;;4958754;28;20473;-70
2023/04/30 04:20:55;;;;;;;5.63;3.25;;;5.30;99.90;;;;;;4971285;28;20602;-70
2023/04/30 04:23:22;;;;;;;3.95;2.78;;;;;;;;;;4978960;28;20066;-70
2023/04/30 04:25:51;;;;;;;3.17;2.65;;;5.40;99.90;;;;;;4969552;28;20101;-70
2023/04/30 04:28:17;;;;;;;5.25;2.28;;;;;;;;;;4962059;28;20148;-70
2023/04/30 04:30:43;;;;;;;5.47;2.95;;;;;;;;;;4982764;28;20054;-70
2023/04/30 04:33:10;;;;;;;5.78;2.58;;;;;;;;;;4960733;28;20555;-70
2023/04/30 04:35:36;;;;;;;6.75;3.13;;;;;;;;;;4978380;28;20050;-70
2023/04/30 04:38:03;;;;;;;5.35;3.65;;;;;;;;;;4960374;28;20046;-72
2023/04/30 04:40:29;;;;;;;5.10;2.75;;;;;;;;;;4972226;28;20050;-69
2023/04/30 04:42:55;;;;;;;4.32;2.75;;;;;;;;;;4962051;28;20059;-68
2023/04/30 04:45:22;;;;;;;4.97;2.38;;;;;;;;;;4983152;28;20049;-68
2023/04/30 04:47:48;;;;;;;4.88;2.75;;;;;;;;;;4979890;28;20053;-68
2023/04/30 04:50:14;;;;;;;5.93;2.58;;;;;;;;;;4978934;28;20039;-68
2023/04/30 04:52:40;;;;;;;5.80;2.50;;;;;;;;;;4947811;28;20050;-68
2023/04/30 04:55:06;;;;;;;6.47;3.00;;;;;;;;;;4959723;28;20436;-68
2023/04/30 04:57:32;;;;;;;4.00;2.67;;;;;;;;;;4969495;28;20050;-71
2023/04/30 04:59:58;;;;;;;6.88;3.47;;;;;;;;;;4964206;28;20571;-70
2023/04/30 05:02:25;;;;;;;8.02;4.00;;;;;;;;;;4976133;28;20055;-68
2023/04/30 05:04:51;;;;;;;8.48;3.20;;;;;;;;;;4943235;28;20182;-70
2023/04/30 05:07:17;;;;;;;6.72;3.95;;;;;;;;;;4957524;28;20051;-70
2023/04/30 05:09:46;;;;;;;6.32;2.88;;;;;;;;;;4957197;28;20416;-70
2023/04/30 05:12:12;;;;;;;3.03;2.53;;;;;;;;;;4960149;28;20069;-70
2023/04/30 05:14:38;;;;;;;6.40;3.28;;;;;;;;;;4959049;28;20142;-70
2023/04/30 05:17:05;;;;;;;5.32;3.63;;;;;;;;;;4984625;28;20416;-71
2023/04/30 05:19:31;;;;;;;4.30;3.08;;;;;;;;;;4964066;28;20049;-71
2023/04/30 05:21:57;;;;;;;6.70;4.25;;;;;;;;;;4970076;28;20054;-68
2023/04/30 05:24:23;;;;;;;6.70;3.92;;;;;;;;;;4961391;28;20512;-68
2023/04/30 05:26:49;;;;;;;10.18;4.30;;;;;;;;;;4958931;28;20276;-70
2023/04/30 05:29:15;;;;;;;9.63;5.13;;;;;;;;;;4960114;28;20624;-70
2023/04/30 05:31:41;;;;;;;7.75;4.97;;;;;;;;;;4962999;28;20053;-69
2023/04/30 05:34:07;;;;;;;8.98;4.90;;;;;;;;;;4961223;28;20073;-70
2023/04/30 05:36:33;;;;;;;12.73;5.03;;;;;;;;;;4983342;28;20074;-70
2023/04/30 05:38:59;;;;;;;10.38;4.80;;;;;;;;;;4976657;28;20057;-70
2023/04/30 05:41:25;;;;;;;10.88;4.47;;;;;;;;;;4972354;28;20528;-71
2023/04/30 05:43:51;;;;;;;13.57;5.10;;;;;;;;;;4966920;28;20046;-71
2023/04/30 05:46:17;;;;;;;9.80;3.80;;;;;;;;;;4973320;28;20042;-71
2023/04/30 05:48:43;;;;;;;6.18;4.53;;;;;;;;;;4979576;28;20049;-71
2023/04/30 05:51:09;;;;;;;8.13;3.70;;;;;;;;;;4958112;28;20089;-72
2023/04/30 05:53:35;;;;;;;7.97;3.67;;;;;;;;;;4964452;28;20089;-70
2023/04/30 05:56:01;;;;;;;10.38;4.18;;;;;;;;;;4969235;28;20149;-70
2023/04/30 05:58:27;;;;;;;6.65;3.47;;;;;;;;;;4974574;28;20047;-71
2023/04/30 06:00:53;;;;;;;13.02;3.72;;;;;;;;;;4958961;28;20050;-72
2023/04/30 06:03:19;;;;;;;5.60;2.53;;;;;;;;;;4957041;28;20051;-71
2023/04/30 06:05:46;;;;;;;9.07;2.88;;;11.70;99.90;;;;;;4963322;28;20097;-69
2023/04/30 06:08:12;;;;;;;6.85;2.58;;;;;;;;;;4961266;28;20117;-70
2023/04/30 06:10:38;;;;;;;11.63;2.83;;;13.50;99.90;;;;;;4965749;28;20046;-71
2023/04/30 06:13:04;;;;;;;8.07;2.78;;;;;;;;;;4960775;28;20417;-70
2023/04/30 06:15:30;;;;;;;11.45;2.67;;;;;;;;;;4958998;28;20050;-70
2023/04/30 06:17:56;;;;;;;7.50;3.13;;;;;;;;;;4961261;28;20054;-70
2023/04/30 06:20:22;;;;;;;12.32;2.80;;;;;;;;;;4961007;28;20117;-73
2023/04/30 06:22:48;;;;;;;7.18;2.60;;;;;;;;;;4973441;28;20047;-77
2023/04/30 06:25:14;;;;;;;7.85;3.50;;;;;;;;;;4964244;28;20039;-75
2023/04/30 06:27:40;;;;;;;9.20;2.55;;;;;;;;;;4961741;28;20054;-70
2023/04/30 06:30:06;;;;;;;6.80;1.67;;;16.00;99.90;;;;;;4971403;28;20054;-71
2023/04/30 06:32:32;;;;;;;9.20;2.53;;;16.70;99.90;;;;;;4952974;28;20093;-72
2023/04/30 06:34:58;;;;;;;8.40;2.55;;;;;;;;;;4961949;28;20074;-72
2023/04/30 06:37:23;;;;;;;8.82;1.85;;;17.30;99.90;;;;;;4960630;28;20070;-73
2023/04/30 06:39:50;;;;;;;7.90;1.70;;;17.40;99.90;;;;;;4957719;28;20046;-72
2023/04/30 06:42:16;;;;;;;4.53;1.58;;;17.60;99.90;;;;;;4956064;28;20070;-71
2023/04/30 06:44:41;;;;;;;8.45;1.77;;;17.80;99.90;;;;;;4971141;28;20521;-70
2023/04/30 06:47:07;;;;;;;7.10;1.50;;;18.50;99.90;;;;;;4983404;28;20042;-71
2023/04/30 06:49:32;;;;;;;5.40;1.60;;;17.90;99.90;;;;;;4958214;28;20051;-72
2023/04/30 06:51:58;;;;;;;8.73;2.33;;;18.30;99.90;;;;;;4958447;28;20047;-71
2023/04/30 06:54:25;;;;;;;9.05;1.83;;;18.60;99.90;;;;;;4958506;28;20050;-70
2023/04/30 06:56:51;;;;;;;6.80;1.50;;;19.60;99.90;;;;;;4987241;28;20094;-70
2023/04/30 06:59:17;;;;;;;6.95;1.88;;;19.10;99.90;;;;;;4976933;28;20120;-70
2023/04/30 07:01:42;;;;;;;8.25;1.58;;;20.60;99.90;;;;;;4952227;28;20046;-71
2023/04/30 07:04:08;;;;;;;12.10;2.15;;;18.00;99.90;;;;;;4959634;28;20046;-76
2023/04/30 07:06:33;;;;;;;13.00;2.20;;;16.10;99.90;;;;;;4956432;28;20047;-71
2023/04/30 07:08:59;;;;;;;6.07;1.55;;;14.80;99.90;;;;;;4958457;28;20043;-70
2023/04/30 07:11:27;;;;;;;9.48;2.13;;;;;;;;;;4980370;28;20050;-76
2023/04/30 07:13:53;;;;;;;7.70;2.40;;;;;;;;;;4968318;28;20054;-72
2023/04/30 07:16:19;;;;;;;7.00;1.60;;;;;;;;;;4967098;28;20054;-73
2023/04/30 07:18:47;;;;;;;8.02;2.60;;;;;;;;;;4965317;28;20535;-72
2023/04/30 07:21:13;;;;;;;9.27;2.90;;;;;;;;;;4956587;28;20046;-71
2023/04/30 07:23:39;;;;;;;11.18;2.78;;;;;;;;;;4967252;28;20038;-70
2023/04/30 07:26:05;;;;;;;9.95;2.28;;;;;;;;;;4969521;28;20062;-72
2023/04/30 07:28:31;;;;;;;10.77;3.15;;;;;;;;;;4964028;28;20050;-72
2023/04/30 07:30:57;;;;;;;6.32;2.38;;;;;;;;;;4958215;28;20750;-71
2023/04/30 07:33:23;;;;;;;9.85;1.80;;;12.30;99.90;;;;;;4953656;28;20078;-72
2023/04/30 07:35:51;;;;;;;6.68;2.83;;;;;;;;;;4967562;28;20563;-71
2023/04/30 07:38:17;;;;;;;5.93;2.30;;;;;;;;;;4964819;28;20121;-71
2023/04/30 07:40:43;;;;;;;7.95;1.77;;;12.30;99.90;;;;;;4967366;28;20062;-71
2023/04/30 07:43:10;;;;;;;6.85;2.40;;;;;;;;;;4960815;28;20658;-72
2023/04/30 07:45:36;;;;;;;9.48;2.75;;;12.30;99.90;;;;;;4967759;28;20060;-69
2023/04/30 07:48:02;;;;;;;15.02;2.50;;;;;;;;;;4990544;28;20038;-71
2023/04/30 07:50:32;;;;;;;8.40;2.38;;;;;;;;;;4982469;28;20046;-72
2023/04/30 07:52:58;;;;;;;7.47;2.53;;;;;;;;;;4963211;28;20074;-72
2023/04/30 07:55:24;;;;;;;7.32;1.80;;;;;;;;;;4981225;28;20489;-73
2023/04/30 07:57:50;;;;;;;7.95;2.80;;;;;;;;;;4977248;28;20121;-74
2023/04/30 08:00:18;;;;;;;9.75;2.83;;;;;;;;;;4964311;28;20052;-73
2023/04/30 08:02:46;;;;;;;8.25;2.30;;;;;;;;;;4964134;28;20126;-73
2023/04/30 08:05:12;;;;;;;4.60;1.85;;;;;;;;;;4968307;28;20086;-71
2023/04/30 08:07:38;;;;;;;10.07;2.20;;;;;;;;;;4982913;28;20538;-69
2023/04/30 08:10:05;;;;;;;8.90;2.25;;;12.40;99.90;;;;;;4973669;28;20047;-70
2023/04/30 08:12:31;;;;;;;11.02;2.30;;;;;;;;;;4962875;28;20097;-74
2023/04/30 08:15:02;;;;;;;7.35;2.75;;;12.60;99.90;;;;;;4985703;28;20058;-71
2023/04/30 08:17:28;;;;;;;9.55;2.70;;;;;;;;;;4961182;28;20081;-71
2023/04/30 08:19:54;;;;;;;9.95;2.90;;;;;;;;;;4962698;28;20130;-70
2023/04/30 08:22:21;;;;;;;11.52;3.50;;;;;;;;;;4962760;28;20050;-70
2023/04/30 08:24:46;;;;;;;7.40;2.40;;;;;;;;;;4978062;28;20109;-70
2023/04/30 08:27:12;;;;;;;8.80;2.65;;;;;;;;;;4964161;28;20822;-69
2023/04/30 08:29:38;;;;;;;8.38;2.35;;;;;;;;;;4966251;28;20051;-70
2023/04/30 08:32:04;;;;;;;5.35;1.85;;;;;;;;;;4963917;28;20121;-70
2023/04/30 08:34:31;;;;;;;8.30;2.58;;;;;;;;;;4962457;28;20053;-71
2023/04/30 08:36:57;;;;;;;9.77;2.75;;;;;;;;;;4981045;28;20046;-70
2023/04/30 08:39:23;;;;;;;9.00;3.10;;;12.60;99.90;;;;;;4974000;28;20046;-69
2023/04/30 08:41:56;;;;;;;6.63;2.42;;;;;;;;;;4978656;28;20090;-70
2023/04/30 08:44:22;;;;;;;11.93;2.40;;;12.70;99.90;;;;;;4979126;28;20054;-70
2023/04/30 08:46:53;;;;;;;12.02;2.75;;;;;;;;;;4956887;28;20039;-70
2023/04/30 08:49:20;;;;;;;5.97;2.35;;;12.80;99.90;;;;;;4962571;28;20050;-70
2023/04/30 08:51:46;;;;;;;6.35;2.88;;;;;;;;;;4960850;28;20046;-70
2023/04/30 08:54:12;;;;;;;10.82;2.88;;;12.80;99.90;;;;;;4976735;28;20473;-69
2023/04/30 08:56:42;;;;;;;8.00;2.70;;;12.90;99.90;;;;;;4969495;28;20121;-69
2023/04/30 08:59:08;;;;;;;12.68;3.08;;;;;;;;;;4978507;28;20031;-70
2023/04/30 09:01:34;;;;;;;6.85;2.38;;;;;;;;;;4980716;28;20074;-70
2023/04/30 09:04:03;;;;;;;6.80;2.65;;;13.10;99.90;;;;;;4980772;28;20043;-70
2023/04/30 09:06:28;;;;;;;11.50;3.33;;;12.90;99.90;;;;;;4959285;28;20567;-70
2023/04/30 09:08:54;;;;;;;8.82;2.90;;;;;;;;;;4974285;28;20077;-71
2023/04/30 09:11:24;;;;;;;8.07;2.70;;;13.20;99.90;;;;;;4962478;28;20568;-70
2023/04/30 09:13:56;;;;;;;9.82;2.58;;;13.20;99.90;;;;;;4961255;28;20058;-73
2023/04/30 09:16:22;;;;;;;9.07;2.40;;;;;;;;;;4978643;28;20065;-72
2023/04/30 09:18:48;;;;;;;10.63;2.20;;;;;;;;;;4959579;28;20046;-72
2023/04/30 09:21:14;;;;;;;8.63;2.50;;;;;;;;;;4955241;28;20078;-72
2023/04/30 09:24:00;;;;;;;9.57;2.80;;;13.50;99.90;;;;;;4960744;28;20043;-72
2023/04/30 09:26:36;;;;;;;10.85;2.60;;;13.20;99.90;;;;;;4982903;28;20074;-73
2023/04/30 09:29:06;;;;;;;6.68;2.47;;;;;;;;;;4964008;28;20047;-71
2023/04/30 09:31:34;;;;;;;5.60;2.75;;;13.60;99.90;;;;;;4981199;28;20050;-71
2023/04/30 09:34:00;;;;;;;9.73;3.47;;;13.70;99.90;;;;;;4959680;28;20728;-71
2023/04/30 09:36:28;;;;;;;10.20;3.90;;;13.60;99.90;;;;;;4981767;28;20066;-71
2023/04/30 09:38:55;;;;;;;7.40;3.80;;;;;;;;;;4966285;28;20048;-72
2023/04/30 09:41:27;;;;;;;7.13;2.47;;;14.00;99.90;;;;;;4966668;28;20055;-72
2023/04/30 09:43:55;;;;;;;7.43;3.35;;;14.20;99.90;;;;;;4969632;28;20084;-72
2023/04/30 09:46:29;;;;;;;10.70;3.63;;;14.00;99.90;;;;;;4969193;28;20061;-72
2023/04/30 09:49:00;;;;;;;7.32;2.83;;;14.20;99.90;;;;;;4970604;28;20113;-73
2023/04/30 09:51:26;;;;;;;8.63;4.57;;;;;;;;;;4968203;28;20046;-73
2023/04/30 09:53:52;;;;;;;9.63;2.92;;;14.10;99.90;;;;;;4982614;28;20035;-70
2023/04/30 09:56:22;;;;;;;9.23;2.58;;;14.10;99.90;;;;;;4985187;28;20177;-71
2023/04/30 09:58:53;;;;;;;9.18;3.08;;;14.20;99.90;;;;;;4980878;28;20776;-71
2023/04/30 10:01:20;;;;;;;9.02;2.53;;;14.30;99.90;;;;;;4982885;28;20416;-72
2023/04/30 10:03:47;;;;;;;9.68;2.88;;;14.30;99.90;;;;;;4968166;28;20046;-70
2023/04/30 10:06:15;;;;;;;5.25;2.40;;;14.50;99.90;;;;;;4968697;28;20046;-71
2023/04/30 10:08:58;;;;;;;7.60;2.47;;;14.40;99.90;;;;;;4967917;28;20042;-71
2023/04/30 10:11:27;;;;;;;9.68;3.80;;;14.50;99.90;;;;;;4966935;28;20050;-70
2023/04/30 10:14:06;;;;;;;4.53;2.15;;;14.20;99.90;;;;;;4964848;28;20551;-71
2023/04/30 10:16:41;;;;;;;9.70;2.25;;;14.40;99.90;;;;;;4963804;28;20047;-74
2023/04/30 10:19:19;;;;;;;8.18;2.60;;;14.30;99.90;;;;;;4981632;28;20860;-71
2023/04/30 10:21:46;;;;;;;6.35;2.35;;;14.50;99.90;;;;;;4984869;28;20057;-70
2023/04/30 10:24:18;;;;;;;7.22;2.13;;;14.50;99.90;;;;;;4981807;28;20117;-70
2023/04/30 10:26:48;;;;;;;5.80;2.05;;;14.80;99.90;;;;;;4968050;28;20047;-70
2023/04/30 10:29:15;;;;;;;6.60;2.05;;;14.70;99.90;;;;;;4968371;28;20050;-71
2023/04/30 10:31:45;;;;;;;6.30;2.03;;;14.80;99.90;;;;;;4967428;28;20125;-70
2023/04/30 10:34:25;;;;;;;10.52;3.00;;;14.90;99.90;;;;;;4965911;28;20042;-71
2023/04/30 10:36:58;;;;;;;5.03;2.58;;;15.00;99.90;;;;;;4960755;28;20058;-71
2023/04/30 10:39:29;;;;;;;9.90;2.10;;;14.80;99.90;;;;;;4972841;28;20061;-71
2023/04/30 10:42:05;;;;;;;9.77;2.13;;;14.80;99.90;;;;;;4967253;28;20051;-71
2023/04/30 10:44:32;;;;;;;4.97;2.22;;;14.90;99.90;;;;;;4966199;28;20082;-70
2023/04/30 10:47:02;;;;;;;9.40;2.67;;;14.90;99.90;;;;;;4982624;28;20042;-71
2023/04/30 10:49:28;;;;;;;7.30;2.58;;;15.00;99.90;;;;;;4965400;28;20046;-71
2023/04/30 10:51:59;;;;;;;5.38;2.28;;;15.40;99.90;;;;;;4966967;28;20038;-71
2023/04/30 10:54:27;;;;;;;8.52;2.38;;;15.00;99.90;;;;;;4958016;28;20042;-71
2023/04/30 10:57:09;;;;;;;9.68;2.03;;;15.30;99.90;;;;;;4983979;28;20440;-71
2023/04/30 10:59:35;;;;;;;6.35;2.45;;;;;;;;;;4976697;28;20125;-71
2023/04/30 11:02:02;;;;;;;8.57;2.53;;;;;;;;;;4982165;28;20100;-71
2023/04/30 11:04:28;;;;;;;6.75;2.15;;;;;;;;;;4980855;28;20133;-71
2023/04/30 11:07:09;;;;;;;8.98;3.05;;;15.10;99.90;;;;;;4984934;28;20066;-71
2023/04/30 11:09:36;;;;;;;5.15;2.25;;;;;;;;;;4986611;28;20042;-71
2023/04/30 11:12:04;;;;;;;8.38;2.95;;;15.00;99.90;;;;;;4964238;28;20042;-70
2023/04/30 11:14:32;;;;;;;7.32;2.58;;;15.10;99.90;;;;;;4978441;28;20034;-71
2023/04/30 11:17:01;;;;;;;5.72;1.95;;;15.10;99.90;;;;;;4968818;28;20492;-71
2023/04/30 11:19:28;;;;;;;5.78;1.80;;;;;;;;;;4969041;28;20130;-71
2023/04/30 11:22:03;;;;;;;5.60;2.17;;;15.00;99.90;;;;;;4986215;28;20100;-70
2023/04/30 11:24:57;;;;;;;8.77;2.10;;;15.20;99.90;;;;;;4969171;28;20047;-70
2023/04/30 11:27:29;;;;;;;7.43;2.70;;;15.10;99.90;;;;;;4968913;28;20042;-71
2023/04/30 11:29:55;;;;;;;6.00;2.58;;;15.20;99.90;;;;;;4966535;28;20046;-70
2023/04/30 11:32:22;;;;;;;6.22;2.17;;;15.00;99.90;;;;;;4969206;28;20042;-71
2023/04/30 11:34:49;;;;;;;5.35;2.05;;;15.30;99.90;;;;;;4966969;28;20080;-72
2023/04/30 11:37:20;;;;;;;5.50;2.05;;;14.90;99.90;;;;;;4985410;28;20071;-71
2023/04/30 11:39:47;;;;;;;8.65;2.22;;;15.10;99.90;;;;;;4984834;28;20054;-71
2023/04/30 11:42:20;;;;;;;5.68;1.67;;;15.30;99.90;;;;;;4967153;28;20062;-71
2023/04/30 11:44:46;;;;;;;5.95;2.10;;;;;;;;;;4982607;28;20046;-71
2023/04/30 11:47:13;;;;;;;5.53;1.92;;;15.50;99.90;;;;;;4986190;28;20489;-71
2023/04/30 11:49:39;;;;;;;5.07;2.72;;;;;;;;;;4986354;28;20042;-71
2023/04/30 11:52:05;;;;;;;6.93;2.42;;;15.60;99.90;;;;;;4986520;28;20042;-71
2023/04/30 11:54:31;;;;;;;6.45;1.80;;;15.80;99.90;;;;;;4962659;28;20046;-71
2023/04/30 11:57:02;;;;;;;4.22;2.17;;;15.70;99.90;;;;;;4972995;28;20100;-71
2023/04/30 11:59:29;;;;;;;5.35;1.90;;;;;;;;;;4983685;28;20078;-71
2023/04/30 12:01:54;;;;;;;3.15;1.90;;;15.70;99.90;;;;;;4971397;28;20041;-71
2023/04/30 12:04:21;;;;;;;4.60;2.10;;;15.50;99.90;;;;;;4987620;28;20049;-71
2023/04/30 12:06:47;;;;;;;5.85;1.90;;;15.30;99.90;;;;;;4972009;28;20502;-71
2023/04/30 12:09:12;;;;;;;4.50;1.60;;;15.10;99.90;;;;;;4990234;28;20154;-71
2023/04/30 12:11:38;;;;;;;7.60;2.00;;;;;;;;;;4971367;28;20093;-70
2023/04/30 12:14:09;;;;;;;3.67;1.40;;;15.40;99.90;;;;;;4986104;28;20508;-71
2023/04/30 12:16:48;;;;;;;4.68;1.80;;;15.50;99.90;;;;;;4970345;28;20493;-70
2023/04/30 12:19:15;;;;;;;6.15;2.00;;;15.50;99.90;;;;;;4989041;28;20086;-70
2023/04/30 12:21:46;;;;;;;6.63;3.25;;;15.60;99.90;;;;;;4970408;28;20149;-70
2023/04/30 12:24:12;;;;;;;4.63;1.40;;;;;;;;;;4988594;28;20069;-71
2023/04/30 12:26:38;;;;;;;5.72;1.83;;;15.70;99.90;;;;;;4985172;28;20046;-70
2023/04/30 12:29:15;;;;;;;11.98;2.38;;;15.60;99.90;;;;;;4971250;28;20061;-70
2023/04/30 12:31:41;;;;;;;3.45;1.48;;;15.70;99.90;;;;;;4986331;28;20500;-70
2023/04/30 12:34:08;;;;;;;3.25;1.77;;;15.70;99.90;;;;;;4969842;28;20050;-71
2023/04/30 12:36:38;;;;;;;4.50;1.58;;;;;;;;;;4986399;28;20201;-72
2023/04/30 12:39:09;;;;;;;5.20;1.55;;;15.80;99.90;;;;;;4989479;28;20076;-71
2023/04/30 12:41:47;;;;;;;3.85;1.77;;;15.80;99.90;;;;;;4989069;28;20420;-71
2023/04/30 12:44:24;;;;;;;4.90;1.60;;;15.90;99.90;;;;;;4971816;28;20039;-71
2023/04/30 12:46:59;;;;;;;2.30;1.38;;;15.90;99.90;;;;;;4971446;28;20050;-71
2023/04/30 12:49:29;;;;;;;2.28;1.20;;;15.90;99.90;;;;;;4971979;28;20085;-71
2023/04/30 12:52:06;;;;;;;5.40;1.40;;;16.30;99.90;;;;;;4988391;28;20105;-71
2023/04/30 12:54:33;;;;;;;6.22;1.55;;;;;;;;;;4970037;28;20133;-72
2023/04/30 12:57:06;;;;;;;3.88;1.30;;;16.00;99.90;;;;;;4971658;28;20492;-71
2023/04/30 12:59:35;;;;;;;7.60;1.42;;;15.80;99.90;;;;;;4955498;28;20050;-71
2023/04/30 13:02:06;;;;;;;3.08;1.73;;;15.80;99.90;;;;;;4969145;28;20089;-71
2023/04/30 13:04:31;;;;;;;5.00;2.40;;;15.80;99.90;;;;;;4989092;28;20803;-70
2023/04/30 13:06:57;;;;;;;6.13;1.50;;;;;;;;;;4979779;28;20085;-71
2023/04/30 13:09:23;;;;;;;4.60;1.58;;;16.10;99.90;;;;;;4970580;28;20042;-71
2023/04/30 13:11:49;;;;;;;4.30;1.67;;;16.00;99.90;;;;;;4989183;28;20044;-71
2023/04/30 13:14:16;;;;;;;2.85;1.10;;;;;;;;;;4982073;28;20061;-72
2023/04/30 13:16:42;;;;;;;5.60;1.38;;;;;;;;;;4980704;28;20062;-72
2023/04/30 13:19:08;;;;;;;3.42;0.93;;;16.30;99.90;;;;;;4967842;28;20124;-71
2023/04/30 13:21:34;;;;;;;3.58;1.52;;;16.40;99.90;;;;;;4970838;28;20455;-71
2023/04/30 13:24:00;;;;;;;4.13;1.63;;;16.00;99.90;;;;;;4975464;28;20039;-70
2023/04/30 13:26:26;;;;;;;5.72;1.33;;;15.90;99.90;;;;;;4970802;28;20493;-71
2023/04/30 13:28:52;;;;;;;3.80;1.20;;;15.90;99.90;;;;;;4967542;28;20065;-71
2023/04/30 13:31:18;;;;;;;2.38;1.33;;;;;;;;;;4968364;28;20564;-71
2023/04/30 13:33:43;;;;;;;1.75;0.90;;;15.80;99.90;;;;;;4970243;28;20054;-71
2023/04/30 13:36:09;;;;;;;5.80;1.98;;;15.80;99.90;;;;;;4970377;28;20046;-71
2023/04/30 13:38:34;;;;;;;4.93;1.23;;;15.80;99.90;;;;;;4969802;28;20762;-71
2023/04/30 13:41:00;;;;;;;1.60;0.70;;;;;;;;;;4969886;28;20054;-72
2023/04/30 13:43:26;;;;;;;3.60;1.38;;;16.10;99.90;;;;;;4969566;28;20054;-71
2023/04/30 13:45:52;;;;;;;3.35;1.15;;;16.20;99.90;;;;;;4970271;28;20042;-70
2023/04/30 13:48:17;;;;;;;3.00;1.10;;;16.00;99.90;;;;;;4987526;28;20050;-70
2023/04/30 13:50:43;;;;;;;4.20;1.88;;;;;;;;;;4987793;28;20768;-71
2023/04/30 13:53:09;;;;;;;2.47;0.93;;;;;;;;;;4969128;28;20046;-71
2023/04/30 13:55:35;;;;;;;3.22;0.88;;;15.60;99.90;;;;;;4970020;28;20085;-71